createdAt,value
2023-03-19T00:01:40.305Z,100.00
2023-03-19T00:04:42.088Z,100.00
2023-03-19T00:07:43.655Z,100.00
2023-03-19T00:10:47.060Z,100.00
2023-03-19T00:13:48.721Z,100.00
2023-03-19T00:16:50.818Z,100.00
2023-03-19T00:19:52.594Z,100.00
2023-03-19T00:22:54.245Z,100.00
2023-03-19T00:25:57.231Z,100.00
2023-03-19T00:28:59.476Z,100.00
2023-03-19T00:32:01.343Z,100.00
2023-03-19T00:35:03.846Z,100.00
2023-03-19T00:38:08.801Z,100.00
2023-03-19T00:41:13.799Z,100.00
2023-03-19T00:44:15.862Z,100.00
2023-03-19T00:47:17.840Z,100.00
2023-03-19T00:50:19.494Z,100.00
2023-03-19T00:53:21.557Z,100.00
2023-03-19T00:56:24.536Z,100.00
2023-03-19T00:59:26.932Z,100.00
2023-03-19T01:02:29.131Z,100.00
2023-03-19T01:05:31.313Z,100.00
2023-03-19T01:08:33.205Z,100.00
2023-03-19T01:11:36.712Z,100.00
2023-03-19T01:14:38.563Z,100.00
2023-03-19T01:17:40.366Z,100.00
2023-03-19T01:20:42.975Z,100.00
2023-03-19T01:23:44.809Z,100.00
2023-03-19T01:26:47.786Z,100.00
2023-03-19T01:30:05.612Z,100.00
2023-03-19T01:33:39.443Z,100.00
2023-03-19T01:37:04.509Z,100.00
2023-03-19T01:40:09.404Z,100.00
2023-03-19T01:43:14.395Z,100.00
2023-03-19T01:46:48.527Z,100.00
2023-03-19T01:50:21.025Z,100.00
2023-03-19T01:53:27.828Z,100.00
2023-03-19T01:56:56.249Z,100.00
2023-03-19T02:00:07.606Z,100.00
2023-03-19T02:03:19.004Z,100.00
2023-03-19T02:06:46.931Z,100.00
2023-03-19T02:09:48.808Z,100.00
2023-03-19T02:12:51.418Z,100.00
2023-03-19T02:15:54.771Z,100.00
2023-03-19T02:18:56.687Z,100.00
2023-03-19T02:21:59.527Z,100.00
2023-03-19T02:25:02.772Z,100.00
2023-03-19T02:28:09.392Z,100.00
2023-03-19T02:31:12.169Z,100.00
2023-03-19T02:34:32.220Z,100.00
2023-03-19T02:37:33.987Z,100.00
2023-03-19T02:40:37.303Z,100.00
2023-03-19T02:43:41.360Z,100.00
2023-03-19T02:46:42.926Z,100.00
2023-03-19T02:49:44.775Z,100.00
2023-03-19T02:52:46.452Z,100.00
2023-03-19T02:55:49.537Z,100.00
2023-03-19T02:58:53.057Z,100.00
2023-03-19T03:01:56.251Z,100.00
2023-03-19T03:04:58.048Z,100.00
2023-03-19T03:08:00.569Z,100.00
2023-03-19T03:11:02.677Z,100.00
2023-03-19T03:14:05.940Z,100.00
2023-03-19T03:17:08.690Z,100.00
2023-03-19T03:20:11.667Z,100.00
2023-03-19T03:23:13.577Z,100.00
2023-03-19T03:26:15.441Z,100.00
2023-03-19T03:29:26.295Z,100.00
2023-03-19T03:32:28.448Z,100.00
2023-03-19T03:35:30.953Z,100.00
2023-03-19T03:38:32.966Z,100.00
2023-03-19T03:41:34.617Z,100.00
2023-03-19T03:44:39.272Z,100.00
2023-03-19T03:47:41.062Z,100.00
2023-03-19T03:50:43.609Z,100.00
2023-03-19T03:53:49.894Z,100.00
2023-03-19T03:56:51.738Z,100.00
2023-03-19T03:59:54.878Z,100.00
2023-03-19T04:02:56.860Z,100.00
2023-03-19T04:05:58.392Z,100.00
2023-03-19T04:09:00.261Z,100.00
2023-03-19T04:12:02.528Z,100.00
2023-03-19T04:15:06.033Z,100.00
2023-03-19T04:18:07.872Z,100.00
2023-03-19T04:21:09.580Z,100.00
2023-03-19T04:24:11.800Z,100.00
2023-03-19T04:27:13.975Z,100.00
2023-03-19T04:30:17.551Z,100.00
2023-03-19T04:33:19.446Z,100.00
2023-03-19T04:36:21.203Z,100.00
2023-03-19T04:39:23.159Z,100.00
2023-03-19T04:42:26.324Z,100.00
2023-03-19T04:45:46.479Z,100.00
2023-03-19T04:48:48.205Z,100.00
2023-03-19T04:51:50.190Z,100.00
2023-03-19T04:54:52.984Z,100.00
2023-03-19T04:57:55.190Z,100.00
2023-03-19T05:01:03.886Z,100.00
2023-03-19T05:04:26.690Z,100.00
2023-03-19T05:07:34.569Z,100.00
2023-03-19T05:10:38.683Z,100.00
2023-03-19T05:13:40.967Z,100.00
2023-03-19T05:16:45.867Z,100.00
2023-03-19T05:19:48.721Z,100.00
2023-03-19T05:22:52.060Z,100.00
2023-03-19T05:25:55.025Z,100.00
2023-03-19T05:29:14.746Z,100.00
2023-03-19T05:32:40.981Z,100.00
2023-03-19T05:35:48.884Z,100.00
2023-03-19T05:38:59.634Z,100.00
2023-03-19T05:42:08.273Z,100.00
2023-03-19T05:45:11.220Z,100.00
2023-03-19T05:48:22.277Z,100.00
2023-03-19T05:51:24.215Z,100.00
2023-03-19T05:54:26.340Z,100.00
2023-03-19T05:57:40.725Z,100.00
2023-03-19T06:00:51.967Z,100.00
2023-03-19T06:03:55.143Z,100.00
2023-03-19T06:06:56.820Z,100.00
2023-03-19T06:09:58.739Z,100.00
2023-03-19T06:13:00.515Z,100.00
2023-03-19T06:16:14.591Z,100.00
2023-03-19T06:19:24.220Z,100.00
2023-03-19T06:22:26.014Z,100.00
2023-03-19T06:25:27.948Z,100.00
2023-03-19T06:28:29.727Z,100.00
2023-03-19T06:31:31.699Z,100.00
2023-03-19T06:34:38.760Z,100.00
2023-03-19T06:37:40.430Z,100.00
2023-03-19T06:40:42.147Z,100.00
2023-03-19T06:43:44.078Z,100.00
2023-03-19T06:46:46.238Z,100.00
2023-03-19T06:49:49.291Z,100.00
2023-03-19T06:52:51.517Z,100.00
2023-03-19T06:55:53.172Z,100.00
2023-03-19T06:58:54.864Z,100.00
2023-03-19T07:01:56.823Z,100.00
2023-03-19T07:04:59.883Z,100.00
2023-03-19T07:08:01.554Z,100.00
2023-03-19T07:11:04.367Z,100.00
2023-03-19T07:14:06.432Z,100.00
2023-03-19T07:17:10.316Z,100.00
2023-03-19T07:20:14.642Z,100.00
2023-03-19T07:23:16.249Z,100.00
2023-03-19T07:26:18.507Z,100.00
2023-03-19T07:29:20.619Z,100.00
2023-03-19T07:32:23.489Z,100.00
2023-03-19T07:35:26.699Z,100.00
2023-03-19T07:38:28.800Z,100.00
2023-03-19T07:41:30.482Z,100.00
2023-03-19T07:44:32.220Z,100.00
2023-03-19T07:47:34.053Z,100.00
2023-03-19T07:50:37.274Z,100.00
2023-03-19T07:53:38.984Z,100.00
2023-03-19T07:56:40.921Z,100.00
2023-03-19T07:59:42.600Z,100.00
2023-03-19T08:02:44.400Z,100.00
2023-03-19T08:05:50.035Z,100.00
2023-03-19T08:08:51.767Z,100.00
2023-03-19T08:11:53.387Z,100.00
2023-03-19T08:14:55.373Z,100.00
2023-03-19T08:18:00.525Z,100.00
2023-03-19T08:21:03.962Z,100.00
2023-03-19T08:24:06.282Z,100.00
2023-03-19T08:27:08.263Z,100.00
2023-03-19T08:30:10.764Z,100.00
2023-03-19T08:33:12.373Z,100.00
2023-03-19T08:36:15.913Z,100.00
2023-03-19T08:39:17.513Z,100.00
2023-03-19T08:42:19.506Z,100.00
2023-03-19T08:45:21.376Z,100.00
2023-03-19T08:48:23.373Z,100.00
2023-03-19T08:51:28.361Z,100.00
2023-03-19T08:54:30.261Z,100.00
2023-03-19T08:57:32.285Z,100.00
2023-03-19T09:00:34.021Z,100.00
2023-03-19T09:03:36.658Z,100.00
2023-03-19T09:06:39.769Z,100.00
2023-03-19T09:09:42.335Z,100.00
2023-03-19T09:12:43.907Z,100.00
2023-03-19T09:15:45.662Z,100.00
2023-03-19T09:18:47.219Z,100.00
2023-03-19T09:21:50.706Z,100.00
2023-03-19T09:24:52.267Z,100.00
2023-03-19T09:27:54.065Z,99.65
2023-03-19T09:30:56.362Z,99.29
2023-03-19T09:33:58.105Z,99.33
2023-03-19T09:37:01.175Z,98.13
2023-03-19T09:40:04.932Z,98.60
2023-03-19T09:43:17.800Z,98.36
2023-03-19T09:46:22.879Z,97.06
2023-03-19T09:49:26.962Z,97.38
2023-03-19T09:52:35.306Z,96.81
2023-03-19T09:55:40.646Z,96.29
2023-03-19T09:58:44.572Z,94.89
2023-03-19T10:01:50.251Z,94.82
2023-03-19T10:05:01.039Z,94.21
2023-03-19T10:08:18.044Z,93.43
2023-03-19T10:14:57.125Z,92.06
2023-03-19T10:18:01.212Z,93.95
2023-03-19T10:21:06.234Z,94.21
2023-03-19T10:24:12.488Z,91.86
2023-03-19T10:27:15.070Z,92.64
2023-03-19T10:30:17.167Z,92.27
2023-03-19T10:33:23.323Z,92.80
2023-03-19T10:43:15.512Z,92.92
2023-03-19T10:46:17.598Z,94.31
2023-03-19T10:49:22.611Z,91.98
2023-03-19T10:52:27.492Z,93.15
2023-03-19T10:55:30.536Z,89.97
2023-03-19T10:58:34.530Z,90.30
2023-03-19T11:01:38.433Z,89.77
2023-03-19T11:04:40.227Z,89.46
2023-03-19T11:07:42.064Z,88.73
2023-03-19T11:14:16.022Z,87.25
2023-03-19T11:17:20.404Z,88.48
2023-03-19T11:20:23.774Z,86.28
2023-03-19T11:23:27.642Z,85.42
2023-03-19T11:26:29.536Z,85.86
2023-03-19T11:29:34.374Z,85.43
2023-03-19T11:32:49.905Z,83.58
2023-03-19T11:35:57.265Z,81.76
2023-03-19T11:39:11.259Z,85.16
2023-03-19T11:42:40.820Z,85.06
2023-03-19T11:45:49.482Z,83.96
2023-03-19T11:49:15.687Z,83.60
2023-03-19T11:52:23.259Z,78.92
2023-03-19T11:55:28.313Z,76.83
2023-03-19T11:58:45.282Z,76.87
2023-03-19T12:02:09.440Z,78.28
2023-03-19T12:05:24.544Z,76.77
2023-03-19T12:08:31.477Z,77.02
2023-03-19T12:11:36.975Z,78.60
2023-03-19T12:14:47.589Z,76.92
2023-03-19T12:17:59.603Z,77.34
2023-03-19T12:21:07.999Z,78.28
2023-03-19T12:24:14.686Z,77.52
2023-03-19T12:27:22.180Z,76.99
2023-03-19T12:30:30.705Z,75.54
2023-03-19T12:33:41.211Z,76.28
2023-03-19T12:36:49.686Z,73.13
2023-03-19T12:39:55.836Z,72.20
2023-03-19T12:42:58.801Z,72.86
2023-03-19T12:46:03.317Z,73.58
2023-03-19T12:49:11.096Z,72.38
2023-03-19T12:52:18.017Z,74.19
2023-03-19T12:55:21.161Z,72.15
2023-03-19T12:58:28.346Z,71.27
2023-03-19T13:01:33.351Z,70.93
2023-03-19T13:04:40.021Z,70.06
2023-03-19T13:07:48.903Z,68.76
2023-03-19T13:10:51.270Z,71.25
2023-03-19T13:13:57.295Z,70.78
2023-03-19T13:17:03.214Z,73.08
2023-03-19T13:20:15.002Z,71.88
2023-03-19T13:23:21.975Z,73.59
2023-03-19T13:26:23.852Z,73.58
2023-03-19T13:29:26.376Z,73.95
2023-03-19T13:32:31.226Z,74.82
2023-03-19T13:35:41.687Z,75.36
2023-03-19T13:55:32.760Z,77.83
2023-03-19T13:58:52.745Z,75.34
2023-03-19T14:01:54.619Z,75.03
2023-03-19T14:04:58.632Z,73.75
2023-03-19T14:08:01.091Z,74.60
2023-03-19T14:11:05.911Z,74.24
2023-03-19T14:14:14.770Z,75.03
2023-03-19T14:17:19.571Z,76.28
2023-03-19T14:20:28.381Z,76.83
2023-03-19T14:23:42.745Z,77.65
2023-03-19T14:30:02.362Z,78.10
2023-03-19T14:33:07.124Z,78.07
2023-03-19T14:36:12.721Z,79.04
2023-03-19T14:39:19.282Z,78.56
2023-03-19T14:42:27.105Z,78.87
2023-03-19T14:45:42.041Z,78.00
2023-03-19T14:48:56.679Z,77.95
2023-03-19T14:52:01.546Z,79.29
2023-03-19T14:55:08.423Z,79.50
2023-03-19T14:58:10.769Z,79.69
2023-03-19T15:01:14.372Z,80.18
2023-03-19T15:04:17.284Z,79.43
2023-03-19T15:07:26.544Z,79.53
2023-03-19T15:10:30.114Z,79.50
2023-03-19T15:13:53.643Z,79.99
2023-03-19T15:23:57.688Z,76.76
2023-03-19T15:26:59.638Z,77.52
2023-03-19T15:30:12.651Z,78.28
2023-03-19T15:33:35.068Z,78.13
2023-03-19T15:36:40.804Z,79.40
2023-03-19T15:39:45.308Z,80.85
2023-03-19T15:42:47.725Z,81.71
2023-03-19T15:45:50.953Z,82.08
2023-03-19T15:48:56.956Z,82.46
2023-03-19T15:52:02.773Z,82.99
2023-03-19T15:55:07.320Z,83.01
2023-03-19T15:58:10.423Z,83.75
2023-03-19T16:01:12.854Z,84.16
2023-03-19T16:04:16.650Z,83.70
2023-03-19T16:07:23.958Z,84.72
2023-03-19T16:10:38.636Z,86.25
2023-03-19T16:13:41.103Z,86.73
2023-03-19T16:16:45.573Z,86.76
2023-03-19T16:19:52.465Z,87.53
2023-03-19T16:22:55.617Z,88.88
2023-03-19T16:26:03.369Z,89.31
2023-03-19T16:29:18.507Z,89.44
2023-03-19T16:32:21.516Z,90.27
2023-03-19T16:35:27.034Z,90.08
2023-03-19T16:38:41.020Z,91.19
2023-03-19T16:41:44.440Z,91.07
2023-03-19T16:44:47.628Z,91.33
2023-03-19T16:47:50.308Z,91.57
2023-03-19T16:50:52.257Z,92.18
2023-03-19T16:53:54.038Z,93.06
2023-03-19T16:56:57.567Z,94.20
2023-03-19T16:59:59.303Z,94.25
2023-03-19T17:03:01.212Z,95.98
2023-03-19T17:06:05.868Z,97.20
2023-03-19T17:09:07.548Z,98.38
2023-03-19T17:12:14.285Z,98.51
2023-03-19T17:15:20.066Z,99.24
2023-03-19T17:18:23.197Z,99.59
2023-03-19T17:21:26.241Z,99.52
2023-03-19T17:24:31.285Z,99.79
2023-03-19T17:27:35.025Z,100.00
2023-03-19T17:30:38.207Z,100.00
2023-03-19T17:33:40.296Z,100.00
2023-03-19T17:36:42.650Z,100.00
2023-03-19T17:39:45.750Z,100.00
2023-03-19T17:42:49.099Z,100.00
2023-03-19T17:45:50.846Z,100.00
2023-03-19T17:48:53.100Z,100.00
2023-03-19T17:51:55.240Z,100.00
2023-03-19T17:54:56.903Z,100.00
2023-03-19T17:58:00.347Z,100.00
2023-03-19T18:01:02.155Z,100.00
2023-03-19T18:04:04.479Z,100.00
2023-03-19T18:07:09.448Z,100.00
2023-03-19T18:10:18.459Z,100.00
2023-03-19T18:13:21.455Z,100.00
2023-03-19T18:16:24.584Z,100.00
2023-03-19T18:19:29.154Z,100.00
2023-03-19T18:22:31.277Z,100.00
2023-03-19T18:25:35.670Z,100.00
2023-03-19T18:28:39.286Z,100.00
2023-03-19T18:31:42.060Z,100.00
2023-03-19T18:34:44.042Z,100.00
2023-03-19T18:37:47.282Z,100.00
2023-03-19T18:40:49.227Z,100.00
2023-03-19T18:43:52.135Z,100.00
2023-03-19T18:46:54.208Z,100.00
2023-03-19T18:49:57.655Z,100.00
2023-03-19T18:52:59.329Z,100.00
2023-03-19T18:56:04.304Z,100.00
2023-03-19T18:59:11.315Z,100.00
2023-03-19T19:02:20.291Z,100.00
2023-03-19T19:05:23.756Z,100.00
2023-03-19T19:08:27.008Z,100.00
2023-03-19T19:11:28.706Z,100.00
2023-03-19T19:14:32.152Z,100.00
2023-03-19T19:17:35.057Z,100.00
2023-03-19T19:20:36.893Z,100.00
2023-03-19T19:23:38.672Z,100.00
2023-03-19T19:26:41.643Z,100.00
2023-03-19T19:29:45.774Z,100.00
2023-03-19T19:32:47.789Z,100.00
2023-03-19T19:35:49.569Z,100.00
2023-03-19T19:38:52.763Z,100.00
2023-03-19T19:41:54.636Z,100.00
2023-03-19T19:45:01.465Z,100.00
2023-03-19T19:48:04.023Z,100.00
2023-03-19T19:51:08.458Z,100.00
2023-03-19T19:54:12.006Z,100.00
2023-03-19T19:57:18.426Z,100.00
2023-03-19T20:00:22.906Z,100.00
2023-03-19T20:03:25.361Z,100.00
2023-03-19T20:06:31.379Z,100.00
2023-03-19T20:09:33.418Z,100.00
2023-03-19T20:12:35.001Z,100.00
2023-03-19T20:15:38.516Z,100.00
2023-03-19T20:18:44.560Z,100.00
2023-03-19T20:21:47.254Z,100.00
2023-03-19T20:24:51.359Z,100.00
2023-03-19T20:27:54.892Z,100.00
2023-03-19T20:30:58.779Z,100.00
2023-03-19T20:34:00.548Z,100.00
2023-03-19T20:37:02.071Z,100.00
2023-03-19T20:40:03.771Z,100.00
2023-03-19T20:43:10.029Z,100.00
2023-03-19T20:46:13.783Z,100.00
2023-03-19T20:49:15.303Z,100.00
2023-03-19T20:52:17.171Z,100.00
2023-03-19T20:55:19.822Z,100.00
2023-03-19T20:58:23.746Z,100.00
2023-03-19T21:01:27.273Z,100.00
2023-03-19T21:04:28.974Z,100.00
2023-03-19T21:07:33.855Z,100.00
2023-03-19T21:10:37.563Z,100.00
2023-03-19T21:13:39.118Z,100.00
2023-03-19T21:16:42.014Z,100.00
2023-03-19T21:19:43.607Z,100.00
2023-03-19T21:22:46.681Z,100.00
2023-03-19T21:25:49.705Z,100.00
2023-03-19T21:28:53.187Z,100.00
2023-03-19T21:31:56.827Z,100.00
2023-03-19T21:34:58.374Z,100.00
2023-03-19T21:37:59.938Z,100.00
2023-03-19T21:41:03.497Z,100.00
2023-03-19T21:44:07.520Z,100.00
2023-03-19T21:47:13.118Z,100.00
2023-03-19T21:50:16.960Z,100.00
2023-03-19T21:53:18.924Z,100.00
2023-03-19T21:56:22.522Z,100.00
2023-03-19T21:59:27.178Z,100.00
2023-03-19T22:02:42.146Z,100.00
2023-03-19T22:05:43.810Z,100.00
2023-03-19T22:08:45.665Z,100.00
2023-03-19T22:11:47.222Z,100.00
2023-03-19T22:14:48.864Z,100.00
2023-03-19T22:17:52.024Z,100.00
2023-03-19T22:20:54.148Z,100.00
2023-03-19T22:23:56.839Z,100.00
2023-03-19T22:26:58.646Z,100.00
2023-03-19T22:30:09.015Z,100.00
2023-03-19T22:33:14.683Z,100.00
2023-03-19T22:36:16.886Z,100.00
2023-03-19T22:39:18.676Z,100.00
2023-03-19T22:42:21.118Z,100.00
2023-03-19T22:45:26.115Z,100.00
2023-03-19T22:48:29.797Z,100.00
2023-03-19T22:51:32.205Z,100.00
2023-03-19T22:54:33.948Z,100.00
2023-03-19T22:57:36.212Z,100.00
2023-03-19T23:00:41.207Z,100.00
2023-03-19T23:03:45.029Z,100.00
2023-03-19T23:06:46.751Z,100.00
2023-03-19T23:09:48.410Z,100.00
2023-03-19T23:12:50.011Z,100.00
2023-03-19T23:15:54.865Z,100.00
2023-03-19T23:18:57.801Z,100.00
2023-03-19T23:22:00.081Z,100.00
2023-03-19T23:25:02.302Z,100.00
2023-03-19T23:28:04.595Z,100.00
2023-03-19T23:31:10.061Z,100.00
2023-03-19T23:34:13.641Z,100.00
2023-03-19T23:37:15.765Z,100.00
2023-03-19T23:40:18.024Z,100.00
2023-03-19T23:43:21.905Z,100.00
2023-03-19T23:46:23.577Z,100.00
2023-03-19T23:49:28.810Z,100.00
2023-03-19T23:52:30.742Z,100.00
2023-03-19T23:55:33.543Z,100.00
2023-03-19T23:58:40.089Z,100.00
